To NAV CANADA Home Page Login to a new session Search on AWWS site Disclaimer Vers la page française équivalente Tips FAQ What's new on the site To the Forecasts and Observations / NOTAM section To "File a Flight Plan" website Publications and other links Update of the User's profile FIC Telephone Numbers My Weather Data Folder Route Weather Data Regional Weather Data Local Weather Data To the Forecasts and Observations / NOTAM section
Request Generated 04/24/2019 at 16:01:55 UTC . Weather information available at that time is displayed.

METAR/TAF

CAPE DORSET/NU    (show WxCam)

METAR CYTE 241500Z 00000KT 2 1/2SM -SN OVC020 M11/M13 A2998 RMK SN2SC6 SLP158=
SPECI CYTE 241447Z 00000KT 2 1/2SM -SN SCT015 OVC022 M12/M14 A2998 RMK SN2SC2SC4 SLP160=
METAR CYTE 241400Z 23003KT 160V280 5SM -SN BKN015 M12/M14 A3000 RMK SC7 SLP166=
METAR CYTE 241300Z 21003KT 170V310 4SM -SN BKN017 M14/M16 A3002 RMK SC7 SLP174=

TAF CYTE 241239Z 2413/2501 VRB03KT 6SM -SN SCT015 BKN050 TEMPO
2413/2415 2SM -SN BKN015 OVC050
FM241500 07008KT 1SM -SN SCT008 OVC015 TEMPO 2415/2501 3SM -SN
BECMG 2417/2419 16015KT
RMK FCST BASED ON AUTO OBS. NXT FCST BY 241900Z=
Your time UTC time
Weather data provided by Environment Canada and NAV CANADA